createdAt,value
2022-08-24T00:01:27.281Z,72.97
2022-08-24T00:04:32.253Z,72.71
2022-08-24T00:07:35.370Z,72.88
2022-08-24T00:10:38.052Z,73.09
2022-08-24T00:13:40.979Z,73.17
2022-08-24T00:16:43.702Z,73.24
2022-08-24T00:19:48.012Z,73.40
2022-08-24T00:22:50.738Z,73.69
2022-08-24T00:25:53.433Z,73.36
2022-08-24T00:28:56.101Z,73.43
2022-08-24T00:31:58.820Z,73.51
2022-08-24T00:35:03.105Z,73.44
2022-08-24T00:38:05.900Z,73.79
2022-08-24T00:41:08.604Z,73.83
2022-08-24T00:44:11.531Z,73.45
2022-08-24T00:47:19.440Z,73.94
2022-08-24T00:50:25.941Z,73.97
2022-08-24T00:53:31.608Z,73.84
2022-08-24T00:56:37.242Z,73.98
2022-08-24T00:59:42.592Z,73.99
2022-08-24T01:02:47.433Z,74.45
2022-08-24T01:05:51.478Z,73.96
2022-08-24T01:08:56.820Z,74.04
2022-08-24T01:11:59.695Z,74.24
2022-08-24T01:15:03.064Z,74.77
2022-08-24T01:18:23.531Z,74.52
2022-08-24T01:21:35.770Z,74.63
2022-08-24T01:24:39.817Z,74.70
2022-08-24T01:27:42.604Z,74.42
2022-08-24T01:30:45.489Z,74.63
2022-08-24T01:33:49.688Z,74.47
2022-08-24T01:36:55.930Z,74.60
2022-08-24T01:39:59.907Z,74.48
2022-08-24T01:43:02.590Z,74.54
2022-08-24T01:46:05.304Z,74.59
2022-08-24T01:49:08.133Z,74.47
2022-08-24T01:52:12.665Z,74.46
2022-08-24T01:55:18.980Z,74.27
2022-08-24T01:58:22.677Z,74.43
2022-08-24T02:01:25.448Z,74.18
2022-08-24T02:04:28.143Z,74.47
2022-08-24T02:07:32.897Z,74.30
2022-08-24T02:10:37.005Z,74.21
2022-08-24T02:13:40.090Z,74.46
2022-08-24T02:16:42.910Z,74.96
2022-08-24T02:19:46.226Z,75.38
2022-08-24T02:22:49.036Z,75.76
2022-08-24T02:25:53.792Z,76.01
2022-08-24T02:28:56.519Z,76.05
2022-08-24T02:32:01.989Z,76.11
2022-08-24T02:35:05.186Z,76.26
2022-08-24T02:38:07.845Z,76.36
2022-08-24T02:41:12.915Z,76.06
2022-08-24T02:44:15.959Z,76.17
2022-08-24T02:47:18.686Z,76.09
2022-08-24T02:50:21.370Z,76.04
2022-08-24T02:53:24.301Z,76.50
2022-08-24T02:56:29.976Z,76.34
2022-08-24T02:59:32.661Z,76.75
2022-08-24T03:02:35.415Z,77.02
2022-08-24T03:05:38.847Z,77.65
2022-08-24T03:08:41.557Z,77.49
2022-08-24T03:11:50.560Z,77.47
2022-08-24T03:14:53.313Z,77.13
2022-08-24T03:17:56.048Z,77.29
2022-08-24T03:20:59.266Z,77.15
2022-08-24T03:24:02.023Z,77.75
2022-08-24T03:27:07.077Z,77.92
2022-08-24T03:30:12.909Z,77.97
2022-08-24T03:33:15.660Z,77.82
2022-08-24T03:36:18.373Z,77.78
2022-08-24T03:39:21.174Z,77.80
2022-08-24T03:42:25.267Z,77.70
2022-08-24T03:45:28.001Z,78.15
2022-08-24T03:48:30.730Z,78.21
2022-08-24T03:51:33.387Z,79.19
2022-08-24T03:54:36.042Z,80.55
2022-08-24T03:57:40.171Z,80.10
2022-08-24T04:00:43.401Z,79.87
2022-08-24T04:03:46.970Z,79.46
2022-08-24T04:06:49.696Z,79.07
2022-08-24T04:09:52.475Z,79.37
2022-08-24T04:12:56.714Z,79.05
2022-08-24T04:15:59.570Z,79.85
2022-08-24T04:19:02.370Z,80.06
2022-08-24T04:22:05.173Z,79.71
2022-08-24T04:25:09.823Z,79.94
2022-08-24T04:28:15.121Z,80.40
2022-08-24T04:31:18.374Z,80.74
2022-08-24T04:34:21.182Z,80.69
2022-08-24T04:37:28.126Z,80.51
2022-08-24T04:40:32.382Z,80.47
2022-08-24T04:43:36.768Z,80.51
2022-08-24T04:46:40.156Z,80.12
2022-08-24T04:49:42.928Z,80.47
2022-08-24T04:52:47.983Z,80.29
2022-08-24T04:55:51.133Z,80.07
2022-08-24T04:58:55.303Z,80.34
2022-08-24T05:01:58.121Z,80.84
2022-08-24T05:05:01.235Z,80.72
2022-08-24T05:08:04.200Z,80.69
2022-08-24T05:11:08.202Z,80.91
2022-08-24T05:14:14.534Z,81.42
2022-08-24T05:17:17.228Z,81.17
2022-08-24T05:20:20.195Z,81.41
2022-08-24T05:23:22.997Z,81.86
2022-08-24T05:26:26.824Z,81.77
2022-08-24T05:29:33.672Z,81.36
2022-08-24T05:32:36.369Z,81.28
2022-08-24T05:35:39.596Z,81.28
2022-08-24T05:38:46.725Z,81.60
2022-08-24T05:41:49.728Z,82.17
2022-08-24T05:44:53.867Z,82.79
2022-08-24T05:47:56.664Z,82.54
2022-08-24T05:50:59.635Z,82.10
2022-08-24T05:54:04.888Z,82.00
2022-08-24T05:57:07.546Z,82.54
2022-08-24T06:00:13.114Z,83.79
2022-08-24T06:03:16.232Z,84.02
2022-08-24T06:06:19.547Z,83.80
2022-08-24T06:09:22.578Z,84.17
2022-08-24T06:12:25.300Z,84.34
2022-08-24T06:15:29.653Z,83.29
2022-08-24T06:18:32.441Z,82.20
2022-08-24T06:21:37.866Z,81.90
2022-08-24T06:24:59.098Z,81.38
2022-08-24T06:28:02.002Z,81.30
2022-08-24T06:31:07.143Z,81.00
2022-08-24T06:34:09.999Z,80.23
2022-08-24T06:37:12.685Z,78.95
2022-08-24T06:40:15.441Z,78.20
2022-08-24T06:43:18.124Z,78.14
2022-08-24T06:46:24.997Z,78.03
2022-08-24T06:49:29.190Z,77.61
2022-08-24T06:52:31.869Z,77.25
2022-08-24T06:55:34.573Z,76.70
2022-08-24T06:58:37.361Z,75.47
2022-08-24T07:01:41.468Z,75.61
2022-08-24T07:04:44.170Z,75.69
2022-08-24T07:07:46.849Z,74.12
2022-08-24T07:10:49.501Z,74.81
2022-08-24T07:13:52.185Z,73.45
2022-08-24T07:16:56.492Z,72.96
2022-08-24T07:19:59.155Z,73.31
2022-08-24T07:23:01.956Z,71.84
2022-08-24T07:26:08.462Z,71.90
2022-08-24T07:29:36.531Z,72.01
2022-08-24T07:32:36.119Z,71.24
2022-08-24T07:35:39.326Z,71.12
2022-08-24T07:38:41.992Z,70.19
2022-08-24T07:45:08.678Z,68.46
2022-08-24T07:48:14.245Z,67.58
2022-08-24T07:51:19.397Z,67.52
2022-08-24T07:54:22.113Z,66.46
2022-08-24T07:57:24.832Z,65.79
2022-08-24T08:00:27.659Z,65.55
2022-08-24T08:03:33.502Z,66.08
2022-08-24T08:06:36.188Z,64.86
2022-08-24T08:09:38.892Z,64.60
2022-08-24T08:12:41.582Z,63.89
2022-08-24T08:15:44.251Z,63.79
2022-08-24T08:18:56.281Z,61.91
2022-08-24T08:22:25.793Z,61.74
2022-08-24T08:25:28.403Z,61.36
2022-08-24T08:28:35.562Z,61.16
2022-08-24T08:31:38.846Z,60.42
2022-08-24T08:34:42.897Z,59.88
2022-08-24T08:37:45.738Z,59.78
2022-08-24T08:40:55.398Z,58.87
2022-08-24T08:44:01.016Z,58.81
2022-08-24T08:47:07.771Z,58.12
2022-08-24T08:50:15.496Z,57.85
2022-08-24T08:53:35.223Z,56.28
2022-08-24T08:56:42.720Z,56.85
2022-08-24T08:59:58.764Z,56.06
2022-08-24T09:03:18.222Z,55.34
2022-08-24T09:06:32.375Z,55.33
2022-08-24T09:09:45.278Z,54.95
2022-08-24T09:12:59.302Z,54.23
2022-08-24T09:16:15.701Z,54.11
2022-08-24T09:19:32.000Z,54.37
2022-08-24T09:22:38.147Z,53.07
2022-08-24T09:25:45.542Z,53.49
2022-08-24T09:28:50.655Z,52.63
2022-08-24T09:32:02.182Z,52.97
2022-08-24T09:35:06.302Z,53.08
2022-08-24T09:38:18.796Z,52.61
2022-08-24T09:41:36.742Z,51.57
2022-08-24T09:44:58.623Z,50.55
2022-08-24T09:48:26.245Z,53.40
2022-08-24T09:52:10.849Z,52.51
2022-08-24T09:55:43.971Z,54.00
2022-08-24T09:58:57.587Z,53.98
2022-08-24T10:02:08.673Z,53.25
2022-08-24T10:05:14.298Z,51.07
2022-08-24T10:08:21.803Z,50.11
2022-08-24T10:11:28.662Z,50.27
2022-08-24T10:14:45.532Z,49.54
2022-08-24T10:17:50.821Z,49.71
2022-08-24T10:21:01.991Z,49.19
2022-08-24T10:24:37.909Z,47.84
2022-08-24T10:27:51.125Z,49.04
2022-08-24T10:30:59.190Z,48.81
2022-08-24T10:34:07.695Z,49.67
2022-08-24T10:37:25.669Z,49.12
2022-08-24T10:40:33.542Z,49.53
2022-08-24T10:43:49.545Z,49.18
2022-08-24T10:46:57.967Z,49.55
2022-08-24T10:50:31.029Z,50.32
2022-08-24T10:53:34.559Z,49.57
2022-08-24T10:56:42.029Z,49.92
2022-08-24T10:59:50.622Z,49.53
2022-08-24T11:03:10.324Z,48.44
2022-08-24T11:06:15.237Z,47.89
2022-08-24T11:09:19.944Z,47.74
2022-08-24T11:12:25.594Z,46.44
2022-08-24T11:15:29.655Z,45.58
2022-08-24T11:18:47.859Z,44.65
2022-08-24T11:21:51.236Z,44.85
2022-08-24T11:24:54.891Z,44.54
2022-08-24T11:27:59.951Z,44.73
2022-08-24T11:31:04.261Z,43.51
2022-08-24T11:34:08.582Z,43.74
2022-08-24T11:37:12.535Z,43.09
2022-08-24T11:40:15.365Z,42.21
2022-08-24T11:43:23.560Z,40.13
2022-08-24T11:46:29.849Z,41.58
2022-08-24T11:49:35.143Z,41.27
2022-08-24T11:52:46.558Z,41.61
2022-08-24T11:55:57.348Z,41.93
2022-08-24T11:59:06.128Z,41.37
2022-08-24T12:02:12.596Z,41.37
2022-08-24T12:05:22.435Z,40.54
2022-08-24T12:08:27.651Z,40.15
2022-08-24T12:11:33.932Z,39.97
2022-08-24T12:14:37.470Z,40.93
2022-08-24T12:17:44.539Z,41.10
2022-08-24T12:20:48.528Z,41.66
2022-08-24T12:23:52.504Z,41.79
2022-08-24T12:26:57.234Z,41.50
2022-08-24T12:30:05.289Z,41.83
2022-08-24T12:33:11.263Z,42.41
2022-08-24T12:36:18.944Z,43.19
2022-08-24T12:39:24.114Z,43.57
2022-08-24T12:42:30.988Z,43.90
2022-08-24T12:45:34.882Z,44.32
2022-08-24T12:48:46.570Z,44.97
2022-08-24T12:52:10.586Z,44.73
2022-08-24T12:55:20.972Z,44.71
2022-08-24T12:58:54.609Z,44.85
2022-08-24T13:02:00.808Z,45.21
2022-08-24T13:05:11.400Z,45.37
2022-08-24T13:08:21.163Z,45.91
2022-08-24T13:11:29.692Z,45.64
2022-08-24T13:14:32.301Z,45.97
2022-08-24T13:17:41.160Z,46.42
2022-08-24T13:20:56.190Z,45.87
2022-08-24T13:24:32.168Z,46.26
2022-08-24T13:28:01.526Z,46.57
2022-08-24T13:31:12.538Z,46.63
2022-08-24T13:34:37.456Z,46.76
2022-08-24T13:37:42.303Z,46.88
2022-08-24T13:40:46.217Z,47.61
2022-08-24T13:43:53.029Z,47.29
2022-08-24T13:47:02.891Z,47.40
2022-08-24T13:50:09.290Z,47.22
2022-08-24T13:53:44.471Z,46.93
2022-08-24T13:56:57.437Z,47.01
2022-08-24T14:00:13.040Z,46.96
2022-08-24T14:03:40.077Z,46.77
2022-08-24T14:06:50.657Z,46.81
2022-08-24T14:10:02.389Z,46.68
2022-08-24T14:13:07.688Z,46.94
2022-08-24T14:16:32.255Z,46.80
2022-08-24T14:19:39.382Z,46.53
2022-08-24T14:22:50.236Z,46.20
2022-08-24T14:26:09.180Z,46.59
2022-08-24T14:29:36.915Z,46.23
2022-08-24T14:32:41.684Z,46.59
2022-08-24T14:35:44.555Z,47.04
2022-08-24T14:38:55.479Z,47.59
2022-08-24T14:42:03.152Z,47.55
2022-08-24T14:45:10.130Z,47.85
2022-08-24T14:48:17.196Z,48.47
2022-08-24T14:51:45.938Z,49.53
2022-08-24T14:54:56.768Z,51.45
2022-08-24T14:58:07.903Z,52.03
2022-08-24T15:01:39.862Z,50.98
2022-08-24T15:04:44.040Z,50.54
2022-08-24T15:07:54.217Z,50.25
2022-08-24T15:10:58.419Z,49.81
2022-08-24T15:14:04.978Z,49.50
2022-08-24T15:17:09.251Z,49.32
2022-08-24T15:20:17.086Z,49.99
2022-08-24T15:23:22.882Z,50.34
2022-08-24T15:26:31.125Z,50.87
2022-08-24T15:29:36.472Z,50.41
2022-08-24T15:32:44.920Z,49.82
2022-08-24T15:35:53.046Z,50.50
2022-08-24T15:38:55.873Z,51.15
2022-08-24T15:41:58.633Z,51.91
2022-08-24T15:45:03.594Z,51.70
2022-08-24T15:48:06.607Z,51.75
2022-08-24T15:51:10.693Z,52.40
2022-08-24T15:54:19.668Z,52.45
2022-08-24T15:57:28.175Z,52.11
2022-08-24T16:00:55.223Z,52.66
2022-08-24T16:03:58.419Z,52.84
2022-08-24T16:07:01.099Z,53.27
2022-08-24T16:10:08.552Z,53.53
2022-08-24T16:13:15.257Z,53.95
2022-08-24T16:16:19.331Z,54.59
2022-08-24T16:19:25.276Z,54.88
2022-08-24T16:22:32.063Z,55.40
2022-08-24T16:25:38.744Z,55.45
2022-08-24T16:28:43.706Z,55.24
2022-08-24T16:31:51.220Z,55.48
2022-08-24T16:34:57.577Z,55.19
2022-08-24T16:38:00.464Z,55.91
2022-08-24T16:41:06.265Z,55.74
2022-08-24T16:44:10.676Z,55.59
2022-08-24T16:47:14.790Z,55.73
2022-08-24T16:50:18.466Z,55.65
2022-08-24T16:53:21.067Z,55.41
2022-08-24T16:56:23.722Z,55.56
2022-08-24T16:59:27.432Z,55.64
2022-08-24T17:02:31.497Z,55.94
2022-08-24T17:05:34.154Z,55.78
2022-08-24T17:08:36.861Z,56.03
2022-08-24T17:11:39.538Z,56.34
2022-08-24T17:14:42.695Z,56.31
2022-08-24T17:17:48.752Z,56.97
2022-08-24T17:20:51.404Z,56.94
2022-08-24T17:23:54.088Z,57.04
2022-08-24T17:26:56.690Z,57.07
2022-08-24T17:29:59.559Z,57.00
2022-08-24T17:33:05.185Z,57.48
2022-08-24T17:36:08.203Z,57.76
2022-08-24T17:39:18.339Z,57.54
2022-08-24T17:42:40.326Z,57.74
2022-08-24T17:45:43.516Z,57.87
2022-08-24T17:48:47.474Z,58.19
2022-08-24T17:51:52.079Z,58.39
2022-08-24T17:54:54.634Z,58.48
2022-08-24T17:57:57.940Z,59.11
2022-08-24T18:01:00.519Z,58.98
2022-08-24T18:04:05.091Z,59.09
2022-08-24T18:07:11.803Z,59.43
2022-08-24T18:10:14.695Z,59.79
2022-08-24T18:13:17.304Z,60.19
2022-08-24T18:16:21.566Z,60.56
2022-08-24T18:19:26.577Z,60.44
2022-08-24T18:22:29.409Z,60.57
2022-08-24T18:25:32.957Z,60.10
2022-08-24T18:28:37.591Z,60.48
2022-08-24T18:31:40.521Z,60.37
2022-08-24T18:34:44.492Z,60.85
2022-08-24T18:37:47.049Z,61.34
2022-08-24T18:40:52.742Z,61.41
2022-08-24T18:43:55.748Z,61.73
2022-08-24T18:46:58.365Z,61.31
2022-08-24T18:50:02.319Z,61.63
2022-08-24T18:53:05.109Z,60.99
2022-08-24T18:56:12.534Z,61.05
2022-08-24T18:59:16.159Z,61.37
2022-08-24T19:02:33.279Z,61.57
2022-08-24T19:05:38.280Z,62.00
2022-08-24T19:08:40.864Z,62.63
2022-08-24T19:11:43.517Z,62.66
2022-08-24T19:14:47.491Z,63.22
2022-08-24T19:17:50.069Z,63.57
2022-08-24T19:20:55.742Z,64.01
2022-08-24T19:23:58.464Z,63.92
2022-08-24T19:27:01.260Z,64.29
2022-08-24T19:30:05.735Z,64.40
2022-08-24T19:33:13.444Z,64.29
2022-08-24T19:36:18.270Z,64.39
2022-08-24T19:39:23.563Z,65.08
2022-08-24T19:42:34.183Z,65.17
2022-08-24T19:46:07.397Z,65.27
2022-08-24T19:49:10.006Z,65.39
2022-08-24T19:52:13.988Z,65.77
2022-08-24T19:55:17.277Z,65.89
2022-08-24T19:58:23.740Z,66.19
2022-08-24T20:01:27.443Z,66.30
2022-08-24T20:04:30.080Z,66.56
2022-08-24T20:07:34.048Z,66.85
2022-08-24T20:10:37.336Z,66.93
2022-08-24T20:13:39.909Z,67.17
2022-08-24T20:16:42.917Z,67.10
2022-08-24T20:19:45.513Z,67.41
2022-08-24T20:22:49.450Z,67.62
2022-08-24T20:25:52.032Z,67.85
2022-08-24T20:28:58.809Z,68.09
2022-08-24T20:32:02.556Z,68.27
2022-08-24T20:35:05.803Z,68.57
2022-08-24T20:38:09.793Z,68.44
2022-08-24T20:41:12.340Z,68.45
2022-08-24T20:44:14.895Z,68.59
2022-08-24T20:47:17.758Z,68.93
2022-08-24T20:50:23.429Z,69.19
2022-08-24T20:53:27.676Z,69.51
2022-08-24T20:56:31.693Z,69.81
2022-08-24T20:59:34.877Z,70.34
2022-08-24T21:02:37.480Z,70.31
2022-08-24T21:05:40.103Z,70.79
2022-08-24T21:08:44.229Z,71.17
2022-08-24T21:11:46.797Z,71.12
2022-08-24T21:14:49.394Z,71.55
2022-08-24T21:17:54.023Z,71.77
2022-08-24T21:21:03.313Z,72.02
2022-08-24T21:24:10.993Z,72.56
2022-08-24T21:27:13.572Z,72.67
2022-08-24T21:30:17.554Z,72.56
2022-08-24T21:33:37.648Z,72.76
2022-08-24T21:36:40.773Z,72.62
2022-08-24T21:39:45.039Z,72.71
2022-08-24T21:42:47.613Z,73.00
2022-08-24T21:45:50.637Z,73.08
2022-08-24T21:48:53.213Z,73.07
2022-08-24T21:51:55.784Z,73.21
2022-08-24T21:55:00.329Z,73.32
2022-08-24T21:58:02.907Z,73.74
2022-08-24T22:01:05.754Z,73.68
2022-08-24T22:04:08.770Z,73.70
2022-08-24T22:07:12.219Z,73.73
2022-08-24T22:10:16.179Z,73.98
2022-08-24T22:13:20.038Z,74.21
2022-08-24T22:16:22.708Z,74.56
2022-08-24T22:19:25.367Z,74.58
2022-08-24T22:22:28.284Z,74.69
2022-08-24T22:25:32.247Z,74.88
2022-08-24T22:28:37.181Z,74.88
2022-08-24T22:31:41.203Z,75.47
2022-08-24T22:34:43.850Z,75.57
2022-08-24T22:37:46.440Z,76.02
2022-08-24T22:40:55.206Z,76.23
2022-08-24T22:44:15.369Z,76.29
2022-08-24T22:47:19.232Z,76.26
2022-08-24T22:50:22.391Z,76.47
2022-08-24T22:53:24.955Z,76.87
2022-08-24T22:56:29.892Z,76.77
2022-08-24T22:59:35.478Z,76.98
2022-08-24T23:02:38.077Z,76.91
2022-08-24T23:05:40.762Z,77.04
2022-08-24T23:08:43.477Z,77.55
2022-08-24T23:11:47.551Z,77.27
2022-08-24T23:14:51.312Z,77.63
2022-08-24T23:17:53.943Z,77.38
2022-08-24T23:20:55.539Z,77.65
2022-08-24T23:23:58.091Z,77.79
2022-08-24T23:27:02.035Z,78.04
2022-08-24T23:30:05.046Z,78.42
2022-08-24T23:33:08.416Z,78.89
2022-08-24T23:36:12.559Z,78.84
2022-08-24T23:39:15.183Z,78.80
2022-08-24T23:42:19.149Z,78.96
2022-08-24T23:45:28.475Z,78.99
2022-08-24T23:48:33.176Z,79.19
2022-08-24T23:51:36.394Z,78.95
2022-08-24T23:54:38.980Z,78.85
2022-08-24T23:57:43.123Z,78.88
